sensor_id;sensor_type;location;lat;lon;timestamp;pressure;altitude;pressure_sealevel;temperature;humidity
75692;BME280;64307;52.508;6.090;2023-02-15T00:01:36;103021.34;;;3.65;95.25
75692;BME280;64307;52.508;6.090;2023-02-15T00:04:03;103019.16;;;3.62;95.38
75692;BME280;64307;52.508;6.090;2023-02-15T00:06:28;103014.25;;;3.59;96.19
75692;BME280;64307;52.508;6.090;2023-02-15T00:08:54;103023.34;;;3.60;95.46
75692;BME280;64307;52.508;6.090;2023-02-15T00:11:20;103013.28;;;3.50;95.11
75692;BME280;64307;52.508;6.090;2023-02-15T00:14:12;103010.88;;;3.44;95.73
75692;BME280;64307;52.508;6.090;2023-02-15T00:16:39;103001.75;;;3.48;97.30
75692;BME280;64307;52.508;6.090;2023-02-15T00:19:06;103014.84;;;3.56;97.55
75692;BME280;64307;52.508;6.090;2023-02-15T00:21:32;103014.03;;;3.56;96.38
75692;BME280;64307;52.508;6.090;2023-02-15T00:24:00;103017.75;;;3.46;96.04
75692;BME280;64307;52.508;6.090;2023-02-15T00:26:26;102999.84;;;3.25;95.95
75692;BME280;64307;52.508;6.090;2023-02-15T00:28:51;103011.84;;;3.34;95.72
75692;BME280;64307;52.508;6.090;2023-02-15T00:31:17;103002.25;;;3.31;95.53
75692;BME280;64307;52.508;6.090;2023-02-15T00:33:43;103010.88;;;3.44;97.50
75692;BME280;64307;52.508;6.090;2023-02-15T00:36:09;103007.59;;;3.42;97.37
75692;BME280;64307;52.508;6.090;2023-02-15T00:38:36;103000.00;;;3.33;96.38
75692;BME280;64307;52.508;6.090;2023-02-15T00:41:03;103005.53;;;3.33;96.25
75692;BME280;64307;52.508;6.090;2023-02-15T00:43:30;103007.53;;;3.28;97.47
75692;BME280;64307;52.508;6.090;2023-02-15T00:45:56;103003.88;;;3.32;97.80
75692;BME280;64307;52.508;6.090;2023-02-15T00:48:22;102997.09;;;3.25;96.96
75692;BME280;64307;52.508;6.090;2023-02-15T00:50:57;103003.41;;;3.25;96.56
75692;BME280;64307;52.508;6.090;2023-02-15T00:53:23;103004.81;;;3.23;96.81
75692;BME280;64307;52.508;6.090;2023-02-15T00:55:48;103001.84;;;3.19;96.29
75692;BME280;64307;52.508;6.090;2023-02-15T00:58:14;103015.31;;;3.21;96.91
75692;BME280;64307;52.508;6.090;2023-02-15T01:00:42;102993.63;;;3.14;97.75
75692;BME280;64307;52.508;6.090;2023-02-15T01:03:08;103002.72;;;3.15;97.19
75692;BME280;64307;52.508;6.090;2023-02-15T01:05:34;103003.56;;;3.15;97.29
75692;BME280;64307;52.508;6.090;2023-02-15T01:08:00;103002.50;;;3.11;97.97
75692;BME280;64307;52.508;6.090;2023-02-15T01:10:26;102987.28;;;2.95;98.12
75692;BME280;64307;52.508;6.090;2023-02-15T01:12:52;102984.25;;;2.97;97.37
75692;BME280;64307;52.508;6.090;2023-02-15T01:15:18;102995.69;;;3.04;98.10
75692;BME280;64307;52.508;6.090;2023-02-15T01:17:44;102989.13;;;3.00;97.52
75692;BME280;64307;52.508;6.090;2023-02-15T01:20:14;102986.38;;;3.00;97.70
75692;BME280;64307;52.508;6.090;2023-02-15T01:22:40;102969.94;;;2.95;98.20
75692;BME280;64307;52.508;6.090;2023-02-15T01:25:05;102962.09;;;2.83;98.01
75692;BME280;64307;52.508;6.090;2023-02-15T01:27:30;102952.03;;;2.74;98.45
75692;BME280;64307;52.508;6.090;2023-02-15T01:29:56;102952.03;;;2.74;98.48
75692;BME280;64307;52.508;6.090;2023-02-15T01:32:22;102959.06;;;2.85;99.38
75692;BME280;64307;52.508;6.090;2023-02-15T01:34:47;102956.31;;;2.85;98.53
75692;BME280;64307;52.508;6.090;2023-02-15T01:37:12;102955.78;;;2.83;98.19
75692;BME280;64307;52.508;6.090;2023-02-15T01:39:38;102958.81;;;2.81;97.64
75692;BME280;64307;52.508;6.090;2023-02-15T01:42:03;102950.41;;;2.73;98.09
75692;BME280;64307;52.508;6.090;2023-02-15T01:45:04;102960.75;;;2.81;99.57
75692;BME280;64307;52.508;6.090;2023-02-15T01:47:46;102954.13;;;2.82;99.14
75692;BME280;64307;52.508;6.090;2023-02-15T01:52:46;102943.78;;;2.74;98.88
75692;BME280;64307;52.508;6.090;2023-02-15T01:55:14;102935.59;;;2.69;98.99
75692;BME280;64307;52.508;6.090;2023-02-15T01:57:39;102928.16;;;2.69;98.63
75692;BME280;64307;52.508;6.090;2023-02-15T02:00:06;102935.53;;;2.74;98.76
75692;BME280;64307;52.508;6.090;2023-02-15T02:02:33;102932.25;;;2.72;98.49
75692;BME280;64307;52.508;6.090;2023-02-15T02:05:01;102936.34;;;2.74;98.49
75692;BME280;64307;52.508;6.090;2023-02-15T02:07:44;102926.75;;;2.72;98.60
75692;BME280;64307;52.508;6.090;2023-02-15T02:10:16;102933.84;;;2.54;97.73
75692;BME280;64307;52.508;6.090;2023-02-15T02:12:43;102936.59;;;2.54;97.68
75692;BME280;64307;52.508;6.090;2023-02-15T02:15:10;102926.50;;;2.44;98.03
75692;BME280;64307;52.508;6.090;2023-02-15T02:17:47;102926.75;;;2.48;98.80
75692;BME280;64307;52.508;6.090;2023-02-15T02:20:30;102922.66;;;2.45;97.88
75692;BME280;64307;52.508;6.090;2023-02-15T02:31:29;102906.50;;;2.39;97.49
75692;BME280;64307;52.508;6.090;2023-02-15T02:36:52;102916.13;;;2.36;97.39
75692;BME280;64307;52.508;6.090;2023-02-15T02:39:24;102904.63;;;2.34;97.41
75692;BME280;64307;52.508;6.090;2023-02-15T02:42:06;102905.66;;;2.38;97.28
75692;BME280;64307;52.508;6.090;2023-02-15T02:44:36;102909.53;;;2.37;97.67
75692;BME280;64307;52.508;6.090;2023-02-15T02:47:48;102903.22;;;2.37;97.40
75692;BME280;64307;52.508;6.090;2023-02-15T02:50:17;102898.84;;;2.36;97.95
75692;BME280;64307;52.508;6.090;2023-02-15T02:52:48;102893.69;;;2.29;97.74
75692;BME280;64307;52.508;6.090;2023-02-15T03:00:38;102877.56;;;1.94;98.25
75692;BME280;64307;52.508;6.090;2023-02-15T03:03:30;102887.28;;;2.10;98.50
75692;BME280;64307;52.508;6.090;2023-02-15T03:06:01;102879.91;;;2.06;98.35
75692;BME280;64307;52.508;6.090;2023-02-15T03:08:34;102874.75;;;1.99;97.73
75692;BME280;64307;52.508;6.090;2023-02-15T03:11:03;102874.47;;;2.01;97.46
75692;BME280;64307;52.508;6.090;2023-02-15T03:13:28;102863.22;;;1.97;97.21
75692;BME280;64307;52.508;6.090;2023-02-15T03:15:55;102863.53;;;1.96;96.85
75692;BME280;64307;52.508;6.090;2023-02-15T03:18:45;102857.59;;;1.84;97.28
75692;BME280;64307;52.508;6.090;2023-02-15T03:21:20;102874.28;;;1.92;98.15
75692;BME280;64307;52.508;6.090;2023-02-15T03:23:59;102861.41;;;1.88;98.19
75692;BME280;64307;52.508;6.090;2023-02-15T03:26:28;102865.81;;;1.89;97.58
75692;BME280;64307;52.508;6.090;2023-02-15T03:28:55;102871.09;;;1.80;97.07
75692;BME280;64307;52.508;6.090;2023-02-15T03:31:26;102847.78;;;1.73;97.79
75692;BME280;64307;52.508;6.090;2023-02-15T03:34:06;102858.00;;;1.72;99.18
75692;BME280;64307;52.508;6.090;2023-02-15T03:39:32;102850.28;;;1.74;99.62
75692;BME280;64307;52.508;6.090;2023-02-15T03:42:13;102849.25;;;1.65;100.00
75692;BME280;64307;52.508;6.090;2023-02-15T03:44:54;102849.22;;;1.70;100.00
75692;BME280;64307;52.508;6.090;2023-02-15T03:47:24;102847.78;;;1.73;100.00
75692;BME280;64307;52.508;6.090;2023-02-15T03:50:02;102842.94;;;1.64;100.00
75692;BME280;64307;52.508;6.090;2023-02-15T03:52:49;102840.53;;;1.58;100.00
75692;BME280;64307;52.508;6.090;2023-02-15T03:55:15;102845.16;;;1.62;100.00
75692;BME280;64307;52.508;6.090;2023-02-15T03:57:41;102840.72;;;1.66;100.00
75692;BME280;64307;52.508;6.090;2023-02-15T04:00:25;102838.78;;;1.67;100.00
75692;BME280;64307;52.508;6.090;2023-02-15T04:05:34;102839.63;;;1.67;100.00
75692;BME280;64307;52.508;6.090;2023-02-15T04:08:00;102837.50;;;1.59;99.99
75692;BME280;64307;52.508;6.090;2023-02-15T04:10:26;102842.50;;;1.52;100.00
75692;BME280;64307;52.508;6.090;2023-02-15T04:13:10;102835.03;;;1.58;100.00
75692;BME280;64307;52.508;6.090;2023-02-15T04:15:35;102829.06;;;1.51;100.00
75692;BME280;64307;52.508;6.090;2023-02-15T04:18:19;102833.69;;;1.55;100.00
75692;BME280;64307;52.508;6.090;2023-02-15T04:20:45;102829.88;;;1.51;100.00
75692;BME280;64307;52.508;6.090;2023-02-15T04:23:29;102827.94;;;1.52;100.00
75692;BME280;64307;52.508;6.090;2023-02-15T04:26:13;102833.09;;;1.58;100.00
75692;BME280;64307;52.508;6.090;2023-02-15T04:28:38;102829.38;;;1.44;100.00
75692;BME280;64307;52.508;6.090;2023-02-15T04:31:03;102832.88;;;1.55;100.00
75692;BME280;64307;52.508;6.090;2023-02-15T04:33:29;102831.81;;;1.51;100.00
75692;BME280;64307;52.508;6.090;2023-02-15T04:35:54;102834.03;;;1.44;100.00
75692;BME280;64307;52.508;6.090;2023-02-15T04:38:19;102826.41;;;1.41;100.00
75692;BME280;64307;52.508;6.090;2023-02-15T04:40:49;102821.19;;;1.39;100.00
75692;BME280;64307;52.508;6.090;2023-02-15T04:43:15;102812.16;;;1.34;100.00
75692;BME280;64307;52.508;6.090;2023-02-15T04:45:40;102817.66;;;1.34;100.00
75692;BME280;64307;52.508;6.090;2023-02-15T04:48:05;102819.31;;;1.35;100.00
75692;BME280;64307;52.508;6.090;2023-02-15T04:50:31;102818.81;;;1.28;100.00
75692;BME280;64307;52.508;6.090;2023-02-15T04:52:56;102818.47;;;1.34;100.00
75692;BME280;64307;52.508;6.090;2023-02-15T04:55:21;102818.25;;;1.31;100.00
75692;BME280;64307;52.508;6.090;2023-02-15T04:57:47;102820.41;;;1.34;100.00
75692;BME280;64307;52.508;6.090;2023-02-15T05:00:12;102807.50;;;1.34;99.31
75692;BME280;64307;52.508;6.090;2023-02-15T05:02:37;102806.16;;;1.32;100.00
75692;BME280;64307;52.508;6.090;2023-02-15T05:05:03;102797.16;;;1.21;100.00
75692;BME280;64307;52.508;6.090;2023-02-15T05:07:30;102818.25;;;1.31;100.00
75692;BME280;64307;52.508;6.090;2023-02-15T05:09:55;102807.28;;;1.31;99.89
75692;BME280;64307;52.508;6.090;2023-02-15T05:12:20;102805.59;;;1.35;100.00
75692;BME280;64307;52.508;6.090;2023-02-15T05:14:45;102793.56;;;1.26;99.58
75692;BME280;64307;52.508;6.090;2023-02-15T05:17:11;102807.00;;;1.27;99.67
75692;BME280;64307;52.508;6.090;2023-02-15T05:19:36;102799.16;;;1.16;99.63
75692;BME280;64307;52.508;6.090;2023-02-15T05:22:02;102802.72;;;1.16;99.79
75692;BME280;64307;52.508;6.090;2023-02-15T05:24:27;102800.28;;;1.10;99.61
75692;BME280;64307;52.508;6.090;2023-02-15T05:27:11;102804.31;;;1.22;99.21
75692;BME280;64307;52.508;6.090;2023-02-15T05:29:55;102793.44;;;1.07;99.27
75692;BME280;64307;52.508;6.090;2023-02-15T05:32:21;102788.50;;;1.09;98.88
75692;BME280;64307;52.508;6.090;2023-02-15T05:34:46;102789.09;;;1.01;99.89
75692;BME280;64307;52.508;6.090;2023-02-15T05:37:11;102783.28;;;1.08;99.58
75692;BME280;64307;52.508;6.090;2023-02-15T05:39:36;102776.19;;;1.07;99.25
75692;BME280;64307;52.508;6.090;2023-02-15T05:42:02;102779.47;;;1.09;99.88
75692;BME280;64307;52.508;6.090;2023-02-15T05:44:27;102786.53;;;1.15;100.00
75692;BME280;64307;52.508;6.090;2023-02-15T05:46:53;102772.63;;;1.06;99.67
75692;BME280;64307;52.508;6.090;2023-02-15T05:49:19;102778.84;;;1.17;100.00
75692;BME280;64307;52.508;6.090;2023-02-15T05:51:44;102771.47;;;1.12;100.00
75692;BME280;64307;52.508;6.090;2023-02-15T05:54:09;102783.66;;;1.30;99.95
75692;BME280;64307;52.508;6.090;2023-02-15T05:56:35;102777.69;;;1.23;100.00
75692;BME280;64307;52.508;6.090;2023-02-15T05:59:00;102783.19;;;1.23;99.82
75692;BME280;64307;52.508;6.090;2023-02-15T06:01:25;102782.38;;;1.22;100.00
75692;BME280;64307;52.508;6.090;2023-02-15T06:03:51;102785.75;;;1.09;100.00
75692;BME280;64307;52.508;6.090;2023-02-15T06:06:17;102769.03;;;1.06;100.00
75692;BME280;64307;52.508;6.090;2023-02-15T06:08:43;102787.09;;;1.12;99.97
75692;BME280;64307;52.508;6.090;2023-02-15T06:11:08;102787.41;;;1.10;99.62
75692;BME280;64307;52.508;6.090;2023-02-15T06:13:34;102789.22;;;1.20;99.93
75692;BME280;64307;52.508;6.090;2023-02-15T06:16:00;102794.78;;;1.15;99.80
75692;BME280;64307;52.508;6.090;2023-02-15T06:18:25;102789.03;;;1.11;100.00
75692;BME280;64307;52.508;6.090;2023-02-15T06:20:50;102799.16;;;1.16;100.00
75692;BME280;64307;52.508;6.090;2023-02-15T06:23:16;102793.66;;;1.16;100.00
75692;BME280;64307;52.508;6.090;2023-02-15T06:25:45;102790.63;;;1.17;100.00
75692;BME280;64307;52.508;6.090;2023-02-15T06:28:10;102777.16;;;1.21;100.00
75692;BME280;64307;52.508;6.090;2023-02-15T06:30:35;102791.63;;;1.31;100.00
75692;BME280;64307;52.508;6.090;2023-02-15T06:33:01;102784.50;;;1.30;100.00
75692;BME280;64307;52.508;6.090;2023-02-15T06:35:26;102779.31;;;1.24;100.00
75692;BME280;64307;52.508;6.090;2023-02-15T06:37:52;102780.97;;;1.25;100.00
75692;BME280;64307;52.508;6.090;2023-02-15T06:40:17;102788.59;;;1.33;100.00
75692;BME280;64307;52.508;6.090;2023-02-15T06:42:42;102782.91;;;1.24;100.00
75692;BME280;64307;52.508;6.090;2023-02-15T06:45:08;102782.59;;;1.26;100.00
75692;BME280;64307;52.508;6.090;2023-02-15T06:47:34;102784.50;;;1.30;100.00
75692;BME280;64307;52.508;6.090;2023-02-15T06:49:59;102784.19;;;1.32;100.00
75692;BME280;64307;52.508;6.090;2023-02-15T06:52:25;102785.03;;;1.27;100.00
75692;BME280;64307;52.508;6.090;2023-02-15T06:54:50;102772.69;;;1.30;100.00
75692;BME280;64307;52.508;6.090;2023-02-15T06:57:16;102771.63;;;1.26;99.91
75692;BME280;64307;52.508;6.090;2023-02-15T06:59:41;102780.06;;;1.34;99.67
75692;BME280;64307;52.508;6.090;2023-02-15T07:02:08;102775.69;;;1.33;99.71
75692;BME280;64307;52.508;6.090;2023-02-15T07:04:34;102769.19;;;1.24;99.77
75692;BME280;64307;52.508;6.090;2023-02-15T07:06:59;102771.88;;;1.29;99.91
75692;BME280;64307;52.508;6.090;2023-02-15T07:09:25;102768.53;;;1.37;99.59
75692;BME280;64307;52.508;6.090;2023-02-15T07:11:50;102774.47;;;1.44;98.98
75692;BME280;64307;52.508;6.090;2023-02-15T07:14:34;102762.16;;;1.42;98.03
75692;BME280;64307;52.508;6.090;2023-02-15T07:16:59;102761.59;;;1.45;98.47
75692;BME280;64307;52.508;6.090;2023-02-15T07:19:25;102756.53;;;1.57;97.95
75692;BME280;64307;52.508;6.090;2023-02-15T07:21:50;102765.78;;;1.66;97.77
75692;BME280;64307;52.508;6.090;2023-02-15T07:24:15;102764.63;;;1.72;97.41
75692;BME280;64307;52.508;6.090;2023-02-15T07:26:40;102759.06;;;1.77;96.55
75692;BME280;64307;52.508;6.090;2023-02-15T07:29:06;102759.88;;;1.78;96.98
75692;BME280;64307;52.508;6.090;2023-02-15T07:31:31;102749.41;;;1.80;96.01
75692;BME280;64307;52.508;6.090;2023-02-15T07:33:56;102762.91;;;2.00;95.64
75692;BME280;64307;52.508;6.090;2023-02-15T07:36:22;102753.63;;;1.96;95.90
75692;BME280;64307;52.508;6.090;2023-02-15T07:38:47;102757.50;;;1.95;96.41
75692;BME280;64307;52.508;6.090;2023-02-15T07:41:14;102742.47;;;1.87;96.02
75692;BME280;64307;52.508;6.090;2023-02-15T07:43:41;102740.03;;;2.09;96.43
75692;BME280;64307;52.508;6.090;2023-02-15T07:46:10;102725.75;;;2.26;94.84
75692;BME280;64307;52.508;6.090;2023-02-15T07:48:38;102745.91;;;2.21;96.21
75692;BME280;64307;52.508;6.090;2023-02-15T07:51:06;102734.34;;;2.62;94.28
75692;BME280;64307;52.508;6.090;2023-02-15T07:53:32;102733.97;;;3.51;91.03
75692;BME280;64307;52.508;6.090;2023-02-15T07:55:59;102733.84;;;5.53;81.54
75692;BME280;64307;52.508;6.090;2023-02-15T07:58:25;102725.25;;;6.33;77.02
75692;BME280;64307;52.508;6.090;2023-02-15T08:01:10;102728.81;;;6.25;75.63
75692;BME280;64307;52.508;6.090;2023-02-15T08:03:35;102716.78;;;6.38;75.19
75692;BME280;64307;52.508;6.090;2023-02-15T08:06:00;102729.66;;;5.34;79.51
75692;BME280;64307;52.508;6.090;2023-02-15T08:08:26;102723.69;;;4.38;83.84
75692;BME280;64307;52.508;6.090;2023-02-15T08:11:15;102721.69;;;5.32;79.83
75692;BME280;64307;52.508;6.090;2023-02-15T08:16:35;102713.34;;;4.79;82.01
75692;BME280;64307;52.508;6.090;2023-02-15T08:19:07;102726.94;;;4.40;84.21
75692;BME280;64307;52.508;6.090;2023-02-15T08:21:34;102715.41;;;5.40;80.93
75692;BME280;64307;52.508;6.090;2023-02-15T08:24:00;102714.09;;;5.68;78.16
75692;BME280;64307;52.508;6.090;2023-02-15T08:26:26;102718.13;;;5.10;81.13
75692;BME280;64307;52.508;6.090;2023-02-15T08:28:52;102706.06;;;4.48;83.11
75692;BME280;64307;52.508;6.090;2023-02-15T08:31:18;102722.88;;;4.95;81.56
75692;BME280;64307;52.508;6.090;2023-02-15T08:33:44;102717.16;;;5.98;78.34
75692;BME280;64307;52.508;6.090;2023-02-15T08:36:14;102723.22;;;6.08;76.68
75692;BME280;64307;52.508;6.090;2023-02-15T08:38:40;102721.13;;;5.83;77.76
75692;BME280;64307;52.508;6.090;2023-02-15T08:41:17;102708.34;;;6.69;75.37
75692;BME280;64307;52.508;6.090;2023-02-15T08:43:44;102706.56;;;6.90;73.28
75692;BME280;64307;52.508;6.090;2023-02-15T08:46:11;102707.19;;;6.36;74.81
75692;BME280;64307;52.508;6.090;2023-02-15T08:48:36;102692.56;;;6.95;73.72
75692;BME280;64307;52.508;6.090;2023-02-15T08:53:39;102672.19;;;7.63;70.49
75692;BME280;64307;52.508;6.090;2023-02-15T08:56:05;102680.03;;;7.53;71.92
75692;BME280;64307;52.508;6.090;2023-02-15T08:58:31;102688.56;;;8.85;68.19
75692;BME280;64307;52.508;6.090;2023-02-15T09:00:57;102689.16;;;9.68;63.80
75692;BME280;64307;52.508;6.090;2023-02-15T09:03:23;102690.56;;;9.74;63.04
75692;BME280;64307;52.508;6.090;2023-02-15T09:05:48;102692.72;;;10.53;60.59
75692;BME280;64307;52.508;6.090;2023-02-15T09:08:14;102675.09;;;10.49;60.40
75692;BME280;64307;52.508;6.090;2023-02-15T09:10:39;102671.75;;;11.11;58.73
75692;BME280;64307;52.508;6.090;2023-02-15T09:13:04;102676.06;;;10.81;59.62
75692;BME280;64307;52.508;6.090;2023-02-15T09:15:30;102671.69;;;10.67;59.22
75692;BME280;64307;52.508;6.090;2023-02-15T09:17:56;102672.91;;;10.54;59.91
75692;BME280;64307;52.508;6.090;2023-02-15T09:20:24;102675.97;;;9.89;62.81
75692;BME280;64307;52.508;6.090;2023-02-15T09:22:51;102663.44;;;11.42;59.00
75692;BME280;64307;52.508;6.090;2023-02-15T09:25:17;102661.63;;;11.49;56.76
75692;BME280;64307;52.508;6.090;2023-02-15T09:27:42;102659.31;;;12.49;54.13
75692;BME280;64307;52.508;6.090;2023-02-15T09:30:08;102659.94;;;11.45;56.74
75692;BME280;64307;52.508;6.090;2023-02-15T09:32:34;102659.91;;;11.88;55.05
75692;BME280;64307;52.508;6.090;2023-02-15T09:34:59;102656.31;;;11.29;57.79
75692;BME280;64307;52.508;6.090;2023-02-15T09:37:24;102657.75;;;10.28;60.73
75692;BME280;64307;52.508;6.090;2023-02-15T09:39:49;102648.69;;;10.07;61.13
75692;BME280;64307;52.508;6.090;2023-02-15T09:56:05;102661.78;;;13.98;50.40
75692;BME280;64307;52.508;6.090;2023-02-15T09:58:44;102659.94;;;14.32;48.89
75692;BME280;64307;52.508;6.090;2023-02-15T10:01:35;102657.06;;;13.34;52.00
75692;BME280;64307;52.508;6.090;2023-02-15T10:06:53;102659.44;;;13.77;51.22
75692;BME280;64307;52.508;6.090;2023-02-15T10:12:32;102663.88;;;13.78;51.14
75692;BME280;64307;52.508;6.090;2023-02-15T10:17:59;102658.22;;;12.91;54.40
75692;BME280;64307;52.508;6.090;2023-02-15T10:26:07;102650.41;;;14.36;51.32
75692;BME280;64307;52.508;6.090;2023-02-15T10:28:50;102649.53;;;12.96;53.39
75692;BME280;64307;52.508;6.090;2023-02-15T10:31:23;102665.47;;;16.01;47.02
75692;BME280;64307;52.508;6.090;2023-02-15T10:33:51;102653.50;;;16.76;44.97
75692;BME280;64307;52.508;6.090;2023-02-15T10:36:33;102663.34;;;16.42;45.68
75692;BME280;64307;52.508;6.090;2023-02-15T10:45:21;102655.63;;;16.32;45.47
75692;BME280;64307;52.508;6.090;2023-02-15T10:56:13;102647.31;;;18.06;41.42
75692;BME280;64307;52.508;6.090;2023-02-15T11:01:53;102649.09;;;16.14;44.88
75692;BME280;64307;52.508;6.090;2023-02-15T11:04:39;102651.16;;;16.99;43.55
75692;BME280;64307;52.508;6.090;2023-02-15T11:07:24;102636.78;;;18.38;40.81
75692;BME280;64307;52.508;6.090;2023-02-15T11:09:57;102637.00;;;16.03;45.60
75692;BME280;64307;52.508;6.090;2023-02-15T11:12:28;102638.91;;;15.92;46.60
75692;BME280;64307;52.508;6.090;2023-02-15T11:15:31;102626.69;;;18.37;41.37
75692;BME280;64307;52.508;6.090;2023-02-15T11:18:03;102628.56;;;16.71;45.04
75692;BME280;64307;52.508;6.090;2023-02-15T11:20:43;102612.28;;;17.96;41.72
75692;BME280;64307;52.508;6.090;2023-02-15T11:23:14;102618.09;;;16.00;45.41
75692;BME280;64307;52.508;6.090;2023-02-15T11:25:43;102615.16;;;15.02;48.44
75692;BME280;64307;52.508;6.090;2023-02-15T11:28:18;102618.00;;;14.13;52.25
75692;BME280;64307;52.508;6.090;2023-02-15T11:30:51;102627.59;;;14.38;52.12
75692;BME280;64307;52.508;6.090;2023-02-15T11:33:23;102618.91;;;13.94;53.28
75692;BME280;64307;52.508;6.090;2023-02-15T11:35:58;102622.03;;;13.40;54.62
75692;BME280;64307;52.508;6.090;2023-02-15T11:38:28;102610.19;;;13.73;54.93
75692;BME280;64307;52.508;6.090;2023-02-15T11:41:04;102598.81;;;13.62;54.98
75692;BME280;64307;52.508;6.090;2023-02-15T11:43:44;102599.25;;;13.19;55.80
75692;BME280;64307;52.508;6.090;2023-02-15T11:46:13;102598.69;;;13.55;54.72
75692;BME280;64307;52.508;6.090;2023-02-15T11:48:40;102597.53;;;13.82;54.37
75692;BME280;64307;52.508;6.090;2023-02-15T11:51:12;102595.06;;;13.55;54.93
75692;BME280;64307;52.508;6.090;2023-02-15T11:53:38;102594.19;;;13.51;55.79
75692;BME280;64307;52.508;6.090;2023-02-15T11:56:04;102595.56;;;14.13;55.30
75692;BME280;64307;52.508;6.090;2023-02-15T12:03:49;102582.91;;;12.41;59.87
75692;BME280;64307;52.508;6.090;2023-02-15T12:06:29;102570.56;;;13.03;58.33
75692;BME280;64307;52.508;6.090;2023-02-15T12:09:04;102580.56;;;12.85;58.58
75692;BME280;64307;52.508;6.090;2023-02-15T12:11:35;102567.19;;;12.94;59.22
75692;BME280;64307;52.508;6.090;2023-02-15T12:14:04;102572.31;;;13.11;58.16
75692;BME280;64307;52.508;6.090;2023-02-15T12:16:39;102563.72;;;12.40;59.89
75692;BME280;64307;52.508;6.090;2023-02-15T12:19:21;102548.22;;;12.65;59.87
75692;BME280;64307;52.508;6.090;2023-02-15T12:21:51;102561.47;;;12.29;61.59
75692;BME280;64307;52.508;6.090;2023-02-15T12:26:44;102544.72;;;12.10;62.01
75692;BME280;64307;52.508;6.090;2023-02-15T12:29:22;102540.94;;;11.84;63.32
75692;BME280;64307;52.508;6.090;2023-02-15T12:31:51;102546.97;;;12.05;62.66
75692;BME280;64307;52.508;6.090;2023-02-15T12:34:22;102541.19;;;11.79;63.55
75692;BME280;64307;52.508;6.090;2023-02-15T12:36:51;102537.22;;;12.14;62.58
75692;BME280;64307;52.508;6.090;2023-02-15T12:39:32;102529.50;;;12.46;61.82
75692;BME280;64307;52.508;6.090;2023-02-15T12:42:04;102515.63;;;12.50;61.30
75692;BME280;64307;52.508;6.090;2023-02-15T12:44:34;102511.16;;;12.68;60.62
75692;BME280;64307;52.508;6.090;2023-02-15T12:49:41;102510.78;;;11.74;63.29
75692;BME280;64307;52.508;6.090;2023-02-15T12:54:49;102501.81;;;12.60;61.19
75692;BME280;64307;52.508;6.090;2023-02-15T12:57:23;102502.09;;;11.94;62.83
75692;BME280;64307;52.508;6.090;2023-02-15T13:00:26;102499.56;;;12.27;61.58
75692;BME280;64307;52.508;6.090;2023-02-15T13:02:55;102502.09;;;12.32;61.92
75692;BME280;64307;52.508;6.090;2023-02-15T13:05:30;102495.41;;;12.37;60.98
75692;BME280;64307;52.508;6.090;2023-02-15T13:07:58;102496.50;;;12.32;61.55
75692;BME280;64307;52.508;6.090;2023-02-15T13:10:34;102503.78;;;12.37;61.70
75692;BME280;64307;52.508;6.090;2023-02-15T13:13:00;102495.28;;;12.53;60.90
75692;BME280;64307;52.508;6.090;2023-02-15T13:17:59;102489.91;;;12.63;60.89
75692;BME280;64307;52.508;6.090;2023-02-15T13:20:26;102484.63;;;12.81;59.69
75692;BME280;64307;52.508;6.090;2023-02-15T13:23:04;102491.03;;;12.81;59.66
75692;BME280;64307;52.508;6.090;2023-02-15T13:25:38;102475.47;;;13.03;59.05
75692;BME280;64307;52.508;6.090;2023-02-15T13:28:12;102465.25;;;12.69;60.19
75692;BME280;64307;52.508;6.090;2023-02-15T13:30:41;102464.13;;;12.51;60.36
75692;BME280;64307;52.508;6.090;2023-02-15T13:36:10;102453.00;;;12.54;59.57
75692;BME280;64307;52.508;6.090;2023-02-15T13:41:09;102446.25;;;12.78;59.16
75692;BME280;64307;52.508;6.090;2023-02-15T13:44:13;102451.22;;;12.65;59.54
75692;BME280;64307;52.508;6.090;2023-02-15T13:52:23;102443.84;;;12.34;60.17
75692;BME280;64307;52.508;6.090;2023-02-15T13:55:30;102445.78;;;12.30;60.26
75692;BME280;64307;52.508;6.090;2023-02-15T14:00:52;102436.72;;;12.37;61.06
75692;BME280;64307;52.508;6.090;2023-02-15T14:11:23;102451.56;;;12.41;60.42
75692;BME280;64307;52.508;6.090;2023-02-15T14:19:43;102445.19;;;12.21;60.83
75692;BME280;64307;52.508;6.090;2023-02-15T14:22:25;102442.59;;;12.32;60.88
75692;BME280;64307;52.508;6.090;2023-02-15T14:25:18;102436.94;;;12.28;60.84
75692;BME280;64307;52.508;6.090;2023-02-15T14:28:06;102439.25;;;12.23;61.11
75692;BME280;64307;52.508;6.090;2023-02-15T14:30:37;102431.47;;;11.94;61.93
75692;BME280;64307;52.508;6.090;2023-02-15T14:35:32;102419.34;;;12.05;62.45
75692;BME280;64307;52.508;6.090;2023-02-15T14:40:48;102430.72;;;11.97;62.95
75692;BME280;64307;52.508;6.090;2023-02-15T14:49:15;102426.09;;;11.85;63.61
75692;BME280;64307;52.508;6.090;2023-02-15T14:59:27;102426.53;;;11.68;64.97
75692;BME280;64307;52.508;6.090;2023-02-15T15:04:35;102438.81;;;11.48;65.81
75692;BME280;64307;52.508;6.090;2023-02-15T15:09:38;102438.28;;;11.42;65.98
75692;BME280;64307;52.508;6.090;2023-02-15T15:14:49;102435.97;;;11.29;66.82
75692;BME280;64307;52.508;6.090;2023-02-15T15:22:33;102428.72;;;11.09;67.71
75692;BME280;64307;52.508;6.090;2023-02-15T15:25:08;102425.03;;;11.05;67.84
75692;BME280;64307;52.508;6.090;2023-02-15T15:27:50;102430.28;;;10.91;69.03
75692;BME280;64307;52.508;6.090;2023-02-15T15:30:46;102426.66;;;10.90;69.11
75692;BME280;64307;52.508;6.090;2023-02-15T15:33:12;102425.44;;;10.88;69.47
75692;BME280;64307;52.508;6.090;2023-02-15T15:41:40;102409.25;;;10.46;71.19
75692;BME280;64307;52.508;6.090;2023-02-15T15:49:45;102426.28;;;10.29;72.51
75692;BME280;64307;52.508;6.090;2023-02-15T15:52:12;102429.50;;;10.31;72.70
75692;BME280;64307;52.508;6.090;2023-02-15T15:54:40;102415.38;;;10.24;73.19